createdAt,value
2019-05-18T00:01:58.870Z,13.32
2019-05-18T00:04:28.155Z,14.25
2019-05-18T00:06:57.437Z,12.55
2019-05-18T00:09:26.878Z,12.30
2019-05-18T00:11:58.487Z,14.63
2019-05-18T00:14:27.788Z,13.05
2019-05-18T00:16:57.127Z,12.28
2019-05-18T00:19:27.794Z,12.40
2019-05-18T00:21:57.244Z,12.03
2019-05-18T00:24:28.347Z,13.08
2019-05-18T00:26:57.717Z,12.10
2019-05-18T00:29:27.760Z,11.65
2019-05-18T00:31:57.127Z,11.88
2019-05-18T00:34:26.547Z,13.28
2019-05-18T00:36:56.665Z,11.38
2019-05-18T00:39:25.998Z,12.55
2019-05-18T00:41:55.569Z,12.63
2019-05-18T00:44:24.842Z,12.55
2019-05-18T00:46:54.124Z,13.85
2019-05-18T00:49:23.499Z,13.28
2019-05-18T00:51:52.914Z,12.18
2019-05-18T00:54:22.286Z,12.80
2019-05-18T00:56:51.771Z,12.98
2019-05-18T00:59:21.127Z,12.60
2019-05-18T01:01:51.553Z,12.47
2019-05-18T01:04:21.309Z,13.22
2019-05-18T01:06:50.688Z,12.82
2019-05-18T01:09:20.008Z,12.60
2019-05-18T01:11:51.627Z,11.00
2019-05-18T01:14:21.025Z,12.60
2019-05-18T01:16:52.700Z,12.07
2019-05-18T01:19:22.068Z,12.10
2019-05-18T01:21:52.862Z,12.03
2019-05-18T01:24:23.253Z,12.60
2019-05-18T01:26:52.546Z,12.07
2019-05-18T01:29:21.924Z,10.93
2019-05-18T01:31:51.364Z,12.10
2019-05-18T01:34:20.616Z,12.15
2019-05-18T01:36:49.912Z,11.93
2019-05-18T01:39:19.208Z,13.78
2019-05-18T01:41:48.684Z,11.53
2019-05-18T01:44:18.004Z,11.55
2019-05-18T01:46:47.360Z,11.30
2019-05-18T01:49:16.671Z,11.83
2019-05-18T01:51:45.935Z,13.90
2019-05-18T01:54:15.297Z,11.18
2019-05-18T01:56:44.703Z,13.18
2019-05-18T01:59:14.155Z,11.65
2019-05-18T02:01:43.568Z,11.65
2019-05-18T02:04:12.894Z,11.60
2019-05-18T02:06:42.181Z,10.82
2019-05-18T02:09:11.599Z,10.45
2019-05-18T02:11:40.880Z,10.60
2019-05-18T02:14:10.230Z,11.93
2019-05-18T02:16:39.621Z,11.40
2019-05-18T02:19:08.967Z,12.30
2019-05-18T02:21:40.639Z,10.90
2019-05-18T02:24:09.976Z,11.90
2019-05-18T02:26:39.273Z,11.95
2019-05-18T02:29:08.539Z,11.33
2019-05-18T02:31:39.172Z,12.30
2019-05-18T02:34:08.740Z,12.43
2019-05-18T02:36:38.108Z,12.47
2019-05-18T02:39:08.197Z,12.78
2019-05-18T02:41:37.878Z,11.57
2019-05-18T02:44:07.372Z,12.82
2019-05-18T02:46:36.756Z,12.45
2019-05-18T02:49:06.170Z,12.20
2019-05-18T02:51:35.532Z,13.43
2019-05-18T02:54:04.964Z,12.20
2019-05-18T02:56:34.336Z,12.40
2019-05-18T02:59:05.734Z,11.30
2019-05-18T03:01:37.619Z,13.55
2019-05-18T03:04:06.992Z,12.15
2019-05-18T03:06:36.325Z,12.58
2019-05-18T03:09:07.040Z,13.78
2019-05-18T03:11:36.467Z,11.48
2019-05-18T03:14:05.909Z,12.40
2019-05-18T03:16:35.323Z,11.70
2019-05-18T03:19:08.748Z,12.53
2019-05-18T03:21:35.981Z,11.85
2019-05-18T03:24:05.239Z,12.07
2019-05-18T03:26:34.578Z,12.65
2019-05-18T03:29:03.809Z,13.20
2019-05-18T03:31:33.060Z,13.48
2019-05-18T03:34:02.394Z,13.65
2019-05-18T03:36:31.727Z,11.45
2019-05-18T03:39:01.075Z,13.78
2019-05-18T03:41:30.471Z,12.65
2019-05-18T03:43:59.891Z,13.20
2019-05-18T03:46:29.268Z,14.68
2019-05-18T03:48:58.552Z,11.63
2019-05-18T03:51:27.877Z,13.65
2019-05-18T03:53:57.173Z,13.90
2019-05-18T03:56:26.462Z,13.18
2019-05-18T03:58:55.757Z,13.03
2019-05-18T04:01:27.231Z,12.05
2019-05-18T04:03:57.642Z,13.48
2019-05-18T04:06:28.795Z,12.58
2019-05-18T04:09:00.358Z,13.95
2019-05-18T04:11:29.693Z,12.65
2019-05-18T04:13:59.113Z,13.72
2019-05-18T04:16:28.423Z,14.40
2019-05-18T04:18:57.688Z,13.90
2019-05-18T04:21:26.963Z,13.53
2019-05-18T04:23:56.210Z,12.05
2019-05-18T04:26:25.482Z,12.10
2019-05-18T04:28:54.844Z,11.70
2019-05-18T04:31:24.124Z,12.95
2019-05-18T04:33:53.559Z,11.53
2019-05-18T04:36:22.887Z,11.43
2019-05-18T04:38:52.175Z,11.35
2019-05-18T04:41:21.563Z,11.38
2019-05-18T04:43:50.889Z,10.32
2019-05-18T04:46:20.171Z,11.28
2019-05-18T04:48:49.472Z,11.45
2019-05-18T04:51:18.764Z,10.88
2019-05-18T04:53:47.976Z,9.73
2019-05-18T04:56:17.287Z,9.78
2019-05-18T04:58:46.543Z,9.10
2019-05-18T05:01:15.838Z,8.93
2019-05-18T05:03:45.441Z,9.83
2019-05-18T05:06:14.953Z,10.08
2019-05-18T05:08:44.268Z,10.03
2019-05-18T05:11:13.532Z,9.85
2019-05-18T05:13:42.905Z,8.80
2019-05-18T05:16:12.585Z,8.88
2019-05-18T05:18:41.951Z,9.15
2019-05-18T05:21:11.378Z,9.75
2019-05-18T05:23:40.656Z,8.75
2019-05-18T05:26:09.938Z,9.70
2019-05-18T05:28:39.269Z,8.13
2019-05-18T05:31:08.669Z,8.10
2019-05-18T05:33:38.017Z,7.95
2019-05-18T05:36:07.630Z,8.23
2019-05-18T05:38:37.154Z,8.00
2019-05-18T05:41:08.185Z,7.65
2019-05-18T05:43:37.786Z,8.08
2019-05-18T05:46:07.280Z,18.37
2019-05-18T05:48:36.559Z,8.18
2019-05-18T05:51:11.235Z,7.80
2019-05-18T06:03:58.632Z,8.30
2019-05-18T06:07:12.218Z,7.40
2019-05-18T06:09:45.315Z,8.10
2019-05-18T06:15:42.073Z,7.37
2019-05-18T06:18:36.647Z,7.45
2019-05-18T06:21:17.752Z,8.23
2019-05-18T06:24:09.335Z,8.58
2019-05-18T06:30:06.946Z,8.93
2019-05-18T06:35:30.871Z,8.68
2019-05-18T06:38:04.968Z,8.60
2019-05-18T06:40:37.897Z,8.15
2019-05-18T06:43:58.322Z,7.80
2019-05-18T06:46:30.248Z,7.45
2019-05-18T06:52:19.434Z,8.60
2019-05-18T06:58:32.719Z,7.42
2019-05-18T07:04:13.005Z,7.95
2019-05-18T07:06:42.868Z,7.30
2019-05-18T07:22:56.858Z,8.68
2019-05-18T07:24:57.697Z,8.38
2019-05-18T07:27:31.568Z,6.47
2019-05-18T07:30:01.204Z,7.60
2019-05-18T07:33:13.372Z,33.10
2019-05-18T07:36:45.484Z,8.83
2019-05-18T07:39:48.602Z,7.22
2019-05-18T07:46:43.212Z,8.55
2019-05-18T07:50:00.168Z,8.95
2019-05-18T07:53:04.560Z,6.92
2019-05-18T07:55:35.160Z,7.15
2019-05-18T07:58:12.470Z,6.90
2019-05-18T08:01:38.665Z,6.95
2019-05-18T08:04:17.478Z,7.50
2019-05-18T08:07:20.535Z,7.25
2019-05-18T08:09:54.734Z,7.78
2019-05-18T08:15:10.056Z,9.75
2019-05-18T08:21:13.891Z,7.45
2019-05-18T08:23:45.387Z,6.40
2019-05-18T08:26:23.320Z,6.15
2019-05-18T08:29:12.465Z,6.58
2019-05-18T08:44:55.414Z,7.10
2019-05-18T08:47:36.824Z,6.85
2019-05-18T08:50:51.991Z,7.05
2019-05-18T08:54:08.109Z,6.30
2019-05-18T10:13:46.645Z,5.87
2019-05-18T10:16:18.971Z,4.62
2019-05-18T10:18:48.372Z,5.55
2019-05-18T10:21:17.796Z,4.53
2019-05-18T10:23:48.233Z,5.45
2019-05-18T10:26:20.146Z,5.37
2019-05-18T10:28:49.411Z,5.42
2019-05-18T10:31:18.874Z,5.42
2019-05-18T10:33:48.160Z,5.10
2019-05-18T10:36:17.406Z,4.90
2019-05-18T10:38:46.661Z,5.95
2019-05-18T10:41:16.003Z,5.60
2019-05-18T10:43:46.867Z,5.70
2019-05-18T10:46:16.270Z,4.95
2019-05-18T10:48:45.485Z,4.55
2019-05-18T10:51:21.261Z,5.10
2019-05-18T10:53:57.314Z,5.97
2019-05-18T10:56:27.233Z,9.33
2019-05-18T10:58:57.497Z,4.80
2019-05-18T11:01:27.004Z,5.45
2019-05-18T11:03:57.001Z,5.03
2019-05-18T11:06:32.116Z,5.30
2019-05-18T11:09:01.893Z,4.60
2019-05-18T11:11:38.496Z,5.00
2019-05-18T11:14:09.168Z,5.08
2019-05-18T11:16:39.024Z,4.53
2019-05-18T11:19:08.786Z,5.65
2019-05-18T11:21:48.423Z,5.67
2019-05-18T11:24:32.186Z,4.75
2019-05-18T11:27:04.916Z,5.78
2019-05-18T11:29:34.288Z,5.40
2019-05-18T11:32:08.606Z,5.22
2019-05-18T11:34:38.941Z,4.70
2019-05-18T11:37:08.563Z,5.85
2019-05-18T11:40:10.099Z,5.60
2019-05-18T11:42:54.096Z,5.83
2019-05-18T11:45:33.965Z,5.85
2019-05-18T11:48:05.041Z,5.58
2019-05-18T11:50:36.015Z,5.03
2019-05-18T11:53:05.443Z,6.72
2019-05-18T11:55:34.929Z,7.40
2019-05-18T11:58:04.331Z,6.15
2019-05-18T12:00:34.085Z,6.65
2019-05-18T12:03:28.897Z,5.78
2019-05-18T14:04:41.746Z,8.67
2019-05-18T14:26:42.251Z,9.00
2019-05-18T14:29:26.142Z,8.57
2019-05-18T14:35:33.389Z,8.47
2019-05-18T14:38:02.357Z,9.47
2019-05-18T14:40:31.469Z,9.03
2019-05-18T14:43:00.404Z,9.40
2019-05-18T14:45:29.461Z,9.00
2019-05-18T14:48:01.950Z,8.87
2019-05-18T14:50:31.161Z,10.07
2019-05-18T14:53:11.522Z,9.20
2019-05-18T14:55:46.864Z,10.10
2019-05-18T14:58:42.806Z,9.40
2019-05-18T15:01:11.856Z,8.97
2019-05-18T15:03:40.944Z,9.53
2019-05-18T15:06:10.301Z,9.03
2019-05-18T15:08:39.275Z,9.67
2019-05-18T15:11:09.566Z,9.90
2019-05-18T15:13:38.604Z,9.83
2019-05-18T15:16:07.723Z,9.73
2019-05-18T15:18:37.561Z,8.70
2019-05-18T15:21:06.733Z,10.00
2019-05-18T15:23:35.839Z,9.83
2019-05-18T15:26:05.673Z,10.70
2019-05-18T15:28:34.711Z,11.70
2019-05-18T15:33:08.943Z,10.90
2019-05-18T15:35:38.028Z,9.90
2019-05-18T15:38:07.167Z,10.30
2019-05-18T15:40:36.102Z,9.57
2019-05-18T15:43:05.611Z,11.50
2019-05-18T15:45:34.695Z,10.13
2019-05-18T15:48:03.789Z,10.43
2019-05-18T15:50:32.873Z,10.40
2019-05-18T15:53:02.883Z,11.57
2019-05-18T15:55:34.390Z,10.10
2019-05-18T15:58:03.576Z,16.07
2019-05-18T16:00:32.639Z,12.10
2019-05-18T16:03:03.216Z,10.47
2019-05-18T16:05:32.352Z,10.90
2019-05-18T16:08:01.448Z,11.43
2019-05-18T16:10:32.086Z,10.30
2019-05-18T16:13:01.012Z,11.17
2019-05-18T16:15:29.974Z,11.23
2019-05-18T16:17:58.982Z,11.07
2019-05-18T16:20:27.973Z,11.33
2019-05-18T16:22:57.864Z,10.70
2019-05-18T16:25:27.533Z,11.80
2019-05-18T16:27:56.494Z,11.07
2019-05-18T16:30:25.887Z,12.10
2019-05-18T16:33:05.865Z,11.43
2019-05-18T16:36:08.016Z,9.50
2019-05-18T16:42:42.130Z,10.90
2019-05-18T16:45:17.832Z,10.90
2019-05-18T16:47:47.283Z,10.93
2019-05-18T16:50:16.812Z,10.08
2019-05-18T16:52:48.850Z,10.77
2019-05-18T16:55:19.822Z,14.18
2019-05-18T16:57:48.791Z,9.90
2019-05-18T17:01:37.436Z,10.40
2019-05-18T17:04:45.295Z,13.00
2019-05-18T17:07:15.086Z,11.00
2019-05-18T17:09:45.516Z,15.00
2019-05-18T17:12:15.777Z,11.15
2019-05-18T17:14:45.042Z,12.20
2019-05-18T17:17:14.324Z,11.48
2019-05-18T17:19:44.632Z,11.55
2019-05-18T17:22:14.241Z,11.53
2019-05-18T17:24:45.190Z,11.60
2019-05-18T17:27:16.287Z,12.30
2019-05-18T17:29:47.205Z,13.20
2019-05-18T17:32:16.496Z,12.65
2019-05-18T17:41:14.518Z,12.18
2019-05-18T17:44:08.217Z,13.48
2019-05-18T17:46:38.998Z,12.73
2019-05-18T17:49:24.587Z,12.88
2019-05-18T17:51:39.649Z,13.68
2019-05-18T17:54:09.036Z,11.30
2019-05-18T17:56:42.844Z,15.40
2019-05-18T17:59:20.470Z,13.98
2019-05-18T18:01:51.448Z,13.90
2019-05-18T18:04:20.762Z,13.70
2019-05-18T18:06:50.242Z,13.13
2019-05-18T18:09:20.901Z,14.10
2019-05-18T18:11:50.382Z,13.93
2019-05-18T18:14:19.899Z,12.88
2019-05-18T18:16:49.172Z,14.60
2019-05-18T18:19:18.397Z,14.75
2019-05-18T18:21:47.640Z,14.65
2019-05-18T18:24:17.616Z,16.27
2019-05-18T18:26:49.206Z,17.17
2019-05-18T18:29:18.551Z,15.15
2019-05-18T18:31:47.993Z,15.48
2019-05-18T18:34:19.806Z,15.85
2019-05-18T18:36:49.058Z,15.38
2019-05-18T18:39:18.359Z,15.08
2019-05-18T18:41:49.910Z,16.15
2019-05-18T18:44:19.131Z,16.40
2019-05-18T18:47:30.898Z,16.73
2019-05-18T18:50:00.191Z,17.80
2019-05-18T18:52:29.408Z,17.05
2019-05-18T18:54:58.669Z,17.35
2019-05-18T18:57:40.580Z,16.75
2019-05-18T18:59:59.650Z,16.17
2019-05-18T19:02:28.951Z,17.10
2019-05-18T19:05:00.555Z,17.92
2019-05-18T19:07:44.480Z,17.45
2019-05-18T19:10:14.082Z,17.80
2019-05-18T19:12:43.312Z,18.02
2019-05-18T19:15:13.990Z,18.10
2019-05-18T19:17:49.332Z,19.12
2019-05-18T19:20:19.308Z,19.55
2019-05-18T19:22:52.556Z,17.87
2019-05-18T19:25:23.490Z,17.60
2019-05-18T19:27:55.430Z,16.67
2019-05-18T19:34:25.298Z,17.17
2019-05-18T19:36:58.972Z,19.30
2019-05-18T19:39:28.234Z,18.65
2019-05-18T19:41:59.222Z,18.50
2019-05-18T19:44:30.337Z,19.45
2019-05-18T19:47:03.870Z,19.30
2019-05-18T19:49:53.562Z,19.35
2019-05-18T19:52:22.925Z,21.00
2019-05-18T19:54:52.364Z,20.00
2019-05-18T19:57:21.632Z,21.57
2019-05-18T19:59:50.946Z,20.85
2019-05-18T20:02:20.206Z,21.40
2019-05-18T20:05:05.582Z,21.25
2019-05-18T20:07:20.532Z,21.57
2019-05-18T20:09:52.906Z,20.00
2019-05-18T20:12:25.802Z,22.50
2019-05-18T20:14:55.195Z,24.12
2019-05-18T20:17:24.513Z,21.00
2019-05-18T20:22:46.427Z,24.07
2019-05-18T20:25:17.677Z,23.95
2019-05-18T20:27:46.953Z,24.60
2019-05-18T20:30:17.693Z,26.15
2019-05-18T20:32:46.922Z,25.50
2019-05-18T20:39:03.858Z,26.02
2019-05-18T20:45:18.807Z,27.17
2019-05-18T20:47:59.839Z,27.48
2019-05-18T20:50:31.292Z,28.65
2019-05-18T20:53:05.840Z,27.52
2019-05-18T20:55:39.083Z,28.65
2019-05-18T20:58:09.099Z,26.35
2019-05-18T21:04:41.754Z,30.97
2019-05-18T21:08:07.455Z,27.87
2019-05-18T21:11:00.064Z,30.82
2019-05-18T21:14:11.085Z,26.82
2019-05-18T21:17:30.528Z,28.38
2019-05-18T21:23:18.073Z,28.92
2019-05-18T21:25:47.620Z,30.48
2019-05-18T21:28:18.037Z,27.95
2019-05-18T21:31:18.953Z,29.40
2019-05-18T21:33:49.971Z,28.52
2019-05-18T21:36:31.152Z,29.60
2019-05-18T21:39:06.581Z,31.05
2019-05-18T21:41:56.550Z,29.35
2019-05-18T21:44:26.647Z,29.30
2019-05-18T21:46:57.893Z,28.67
2019-05-18T21:49:31.819Z,29.92
2019-05-18T21:52:01.148Z,29.57
2019-05-18T21:54:41.035Z,30.85
2019-05-18T21:57:11.289Z,29.77
2019-05-18T22:07:17.489Z,30.62
2019-05-18T22:13:44.155Z,30.37
2019-05-18T22:16:13.610Z,30.12
2019-05-18T22:18:49.406Z,28.77
2019-05-18T22:21:18.715Z,28.75
2019-05-18T22:23:48.094Z,30.72
2019-05-18T22:26:17.605Z,31.30
2019-05-18T22:28:47.158Z,33.05
2019-05-18T22:31:19.491Z,30.80
2019-05-18T22:33:50.135Z,31.50
2019-05-18T22:36:19.499Z,33.13
2019-05-18T22:38:51.945Z,32.50
2019-05-18T22:41:26.111Z,30.20
2019-05-18T22:43:55.442Z,32.20
2019-05-18T22:46:24.788Z,32.10
2019-05-18T22:48:54.087Z,30.08
2019-05-18T22:51:23.896Z,30.15
2019-05-18T22:53:57.408Z,30.77
2019-05-18T22:56:34.340Z,31.12
2019-05-18T22:59:03.990Z,29.50
2019-05-18T23:01:33.481Z,30.90
2019-05-18T23:04:02.845Z,29.92
2019-05-18T23:06:32.201Z,30.65
2019-05-18T23:09:01.463Z,31.97
2019-05-18T23:11:30.774Z,32.88
2019-05-18T23:14:24.738Z,30.23
2019-05-18T23:16:54.439Z,31.55
2019-05-18T23:19:25.196Z,33.35
2019-05-18T23:21:55.560Z,31.55
2019-05-18T23:24:25.544Z,31.33
2019-05-18T23:26:54.935Z,32.23
2019-05-18T23:29:24.206Z,33.48
2019-05-18T23:31:56.623Z,33.48
2019-05-18T23:34:26.998Z,32.38
2019-05-18T23:36:56.603Z,31.65
2019-05-18T23:39:25.907Z,31.30
2019-05-18T23:41:55.273Z,28.55
2019-05-18T23:44:24.615Z,30.25
2019-05-18T23:46:55.008Z,30.32
2019-05-18T23:49:24.337Z,28.55
2019-05-18T23:51:54.196Z,28.92
2019-05-18T23:54:23.563Z,27.40
2019-05-18T23:56:52.867Z,28.60
2019-05-18T23:59:22.185Z,28.87
